Time;durP1;ratioP1;P1;durP2;ratioP2;P2;SDS_P1;SDS_P2;PMS_P1;PMS_P2;Temp;Humidity;BMP_temperature;BMP_pressure;BME280_temperature;BME280_humidity;BME280_pressure;Samples;Min_cycle;Max_cycle;Signal;HPM_P1;HPM_P2
2021/05/04 00:02:04;;;;;;;16.33;7.45;;;7.40;99.90;;;;;;5085048;28;20033;-73
2021/05/04 00:04:30;;;;;;;18.50;7.20;;;7.40;99.90;;;;;;5084101;28;20054;-73
2021/05/04 00:06:55;;;;;;;12.77;6.85;;;7.40;99.90;;;;;;5084900;28;20108;-73
2021/05/04 00:09:22;;;;;;;22.52;7.63;;;7.50;99.90;;;;;;5083451;28;20107;-71
2021/05/04 00:11:47;;;;;;;15.85;6.82;;;7.40;99.90;;;;;;5084941;28;20029;-71
2021/05/04 00:14:13;;;;;;;11.52;5.72;;;7.50;99.90;;;;;;5084877;28;20031;-72
2021/05/04 00:16:39;;;;;;;12.48;6.65;;;7.50;99.90;;;;;;5084618;28;20068;-70
2021/05/04 00:19:04;;;;;;;13.60;7.47;;;7.50;99.90;;;;;;5084530;28;20037;-76
2021/05/04 00:21:31;;;;;;;11.18;5.70;;;7.50;99.90;;;;;;5084882;28;20078;-73
2021/05/04 00:23:57;;;;;;;13.25;5.63;;;7.50;99.90;;;;;;5083652;28;20029;-73
2021/05/04 00:26:22;;;;;;;9.70;5.60;;;7.60;99.90;;;;;;5083297;28;20106;-71
2021/05/04 00:28:48;;;;;;;9.25;5.13;;;7.50;99.90;;;;;;5084796;28;20028;-70
2021/05/04 00:31:14;;;;;;;13.10;5.32;;;7.60;99.90;;;;;;5084693;28;20028;-70
2021/05/04 00:33:40;;;;;;;7.13;3.72;;;7.60;99.90;;;;;;5082485;28;20081;-74
2021/05/04 00:36:05;;;;;;;12.93;6.65;;;7.60;99.90;;;;;;5083965;28;20119;-71
2021/05/04 00:38:32;;;;;;;9.75;4.75;;;7.60;99.90;;;;;;5084664;28;20516;-71
2021/05/04 00:40:57;;;;;;;11.00;5.65;;;7.60;99.90;;;;;;5083934;28;20033;-71
2021/05/04 00:43:32;;;;;;;8.35;4.93;;;7.70;99.90;;;;;;5083311;28;20025;-74
2021/05/04 00:45:59;;;;;;;12.77;5.65;;;7.70;99.90;;;;;;5084823;28;20021;-73
2021/05/04 00:48:26;;;;;;;10.20;5.53;;;7.70;99.90;;;;;;5084654;28;20028;-75
2021/05/04 00:50:52;;;;;;;10.95;6.30;;;7.80;99.90;;;;;;5084553;28;20035;-75
2021/05/04 00:53:17;;;;;;;13.38;5.28;;;7.80;99.90;;;;;;5083043;28;20025;-73
2021/05/04 00:55:44;;;;;;;10.27;5.35;;;7.80;99.90;;;;;;5084275;28;20052;-73
2021/05/04 00:58:12;;;;;;;8.93;5.22;;;7.80;99.90;;;;;;5083222;28;20145;-73
2021/05/04 01:00:39;;;;;;;12.10;5.90;;;7.80;99.90;;;;;;5084568;28;20025;-74
2021/05/04 01:03:06;;;;;;;8.88;4.70;;;7.80;99.90;;;;;;5083834;28;20043;-77
2021/05/04 01:05:32;;;;;;;9.05;4.68;;;7.80;99.90;;;;;;5083454;28;20024;-75
2021/05/04 01:07:58;;;;;;;9.48;4.85;;;7.70;99.90;;;;;;5084231;28;20029;-76
2021/05/04 01:10:24;;;;;;;7.18;4.68;;;7.80;99.90;;;;;;5083827;28;20040;-76
2021/05/04 01:12:49;;;;;;;10.48;5.75;;;7.80;99.90;;;;;;5084347;28;20029;-74
2021/05/04 01:15:15;;;;;;;9.70;4.25;;;7.80;99.90;;;;;;5084017;28;20060;-72
2021/05/04 01:17:41;;;;;;;7.82;4.55;;;7.70;99.90;;;;;;5084026;28;20025;-77
2021/05/04 01:20:07;;;;;;;14.00;5.45;;;7.80;99.90;;;;;;5084179;28;20103;-74
2021/05/04 01:22:33;;;;;;;7.25;3.85;;;7.80;99.90;;;;;;5082810;28;20021;-74
2021/05/04 01:24:59;;;;;;;5.00;3.28;;;7.80;99.90;;;;;;5084244;28;20027;-73
2021/05/04 01:27:24;;;;;;;17.00;4.40;;;7.90;99.90;;;;;;5084031;28;20093;-71
2021/05/04 01:29:50;;;;;;;9.52;5.00;;;7.90;99.90;;;;;;5084903;28;20024;-75
2021/05/04 01:32:16;;;;;;;7.60;4.72;;;7.90;99.90;;;;;;5086901;28;20043;-73
2021/05/04 01:34:43;;;;;;;9.57;4.32;;;8.00;99.90;;;;;;5086261;28;20048;-73
2021/05/04 01:37:08;;;;;;;10.50;3.97;;;8.10;99.90;;;;;;5086253;28;20072;-72
2021/05/04 01:39:48;;;;;;;9.25;4.82;;;8.00;99.90;;;;;;5087957;28;20040;-71
2021/05/04 01:42:15;;;;;;;8.93;4.35;;;8.00;99.90;;;;;;5087685;28;20074;-75
2021/05/04 01:44:41;;;;;;;8.65;3.97;;;8.00;99.90;;;;;;5087512;28;20032;-74
2021/05/04 01:47:07;;;;;;;8.27;4.30;;;8.10;99.90;;;;;;5086392;28;20055;-73
2021/05/04 01:49:33;;;;;;;7.75;4.25;;;8.00;99.90;;;;;;5086544;28;20024;-79
2021/05/04 01:52:00;;;;;;;6.68;3.85;;;8.00;99.90;;;;;;5087779;28;20074;-78
2021/05/04 01:54:26;;;;;;;8.18;4.53;;;8.00;99.90;;;;;;5087972;28;20024;-71
2021/05/04 01:56:53;;;;;;;9.63;4.57;;;8.00;99.90;;;;;;5085545;28;20036;-70
2021/05/04 01:59:20;;;;;;;6.45;3.70;;;8.10;99.90;;;;;;5087396;28;20024;-73
2021/05/04 02:01:46;;;;;;;7.07;3.53;;;8.10;99.90;;;;;;5086240;28;20020;-72
2021/05/04 02:04:11;;;;;;;7.82;4.28;;;8.10;99.90;;;;;;5087248;28;20043;-74
2021/05/04 02:06:37;;;;;;;5.38;3.20;;;8.10;99.90;;;;;;5086015;28;20025;-74
2021/05/04 02:09:04;;;;;;;6.43;3.88;;;8.10;99.90;;;;;;5086184;28;20028;-71
2021/05/04 02:11:30;;;;;;;7.10;3.67;;;8.20;99.90;;;;;;5087155;28;20028;-77
2021/05/04 02:13:55;;;;;;;5.25;3.47;;;8.20;99.90;;;;;;5087746;28;20548;-72
2021/05/04 02:16:21;;;;;;;6.05;3.97;;;8.20;99.90;;;;;;5084952;28;20049;-75
2021/05/04 02:18:47;;;;;;;5.50;2.92;;;8.20;99.90;;;;;;5086741;28;20036;-74
2021/05/04 02:21:15;;;;;;;3.00;2.17;;;8.30;99.90;;;;;;5087208;28;20036;-73
2021/05/04 02:23:44;;;;;;;6.00;3.38;;;8.30;99.90;;;;;;5085545;28;20119;-73
2021/05/04 02:26:12;;;;;;;11.93;4.30;;;8.30;99.90;;;;;;5086930;28;20037;-72
2021/05/04 02:28:39;;;;;;;5.65;3.55;;;8.30;99.90;;;;;;5086998;28;20023;-72
2021/05/04 02:31:05;;;;;;;8.57;3.10;;;8.30;99.90;;;;;;5086802;28;20028;-75
2021/05/04 02:33:31;;;;;;;5.25;3.25;;;8.30;99.90;;;;;;5086732;28;20032;-71
2021/05/04 02:35:57;;;;;;;5.53;2.70;;;8.30;99.90;;;;;;5085549;28;20040;-74
2021/05/04 02:38:23;;;;;;;5.35;3.30;;;8.30;99.90;;;;;;5086548;28;20025;-74
2021/05/04 02:40:49;;;;;;;5.95;3.42;;;8.40;99.90;;;;;;5085866;28;20029;-73
2021/05/04 02:43:14;;;;;;;7.03;3.42;;;8.30;99.90;;;;;;5085231;28;20028;-72
2021/05/04 02:45:40;;;;;;;6.25;3.17;;;8.30;99.90;;;;;;5084251;28;20035;-70
2021/05/04 02:48:05;;;;;;;5.43;2.90;;;8.20;99.90;;;;;;5085464;28;20020;-72
2021/05/04 02:50:31;;;;;;;7.00;3.05;;;8.20;99.90;;;;;;5085654;28;20028;-74
2021/05/04 02:52:57;;;;;;;5.40;3.03;;;8.20;99.90;;;;;;5086328;28;20027;-72
2021/05/04 02:55:23;;;;;;;5.47;2.95;;;8.30;99.90;;;;;;5085157;28;20036;-75
2021/05/04 02:57:49;;;;;;;6.78;3.30;;;8.30;99.90;;;;;;5086312;28;20535;-76
2021/05/04 03:00:15;;;;;;;6.20;3.53;;;8.30;99.90;;;;;;5086043;28;20047;-74
2021/05/04 03:02:41;;;;;;;4.93;2.35;;;8.30;99.90;;;;;;5085101;28;20027;-74
2021/05/04 03:05:07;;;;;;;4.95;2.70;;;8.30;99.90;;;;;;5086405;28;20084;-74
2021/05/04 03:07:32;;;;;;;11.82;3.00;;;8.30;99.90;;;;;;5086038;28;20025;-73
2021/05/04 03:09:58;;;;;;;5.47;2.65;;;8.40;99.90;;;;;;5085944;28;20054;-74
2021/05/04 03:12:23;;;;;;;8.60;3.97;;;8.40;99.90;;;;;;5086088;28;20039;-74
2021/05/04 03:14:49;;;;;;;7.10;3.35;;;8.50;99.90;;;;;;5085762;28;20029;-74
2021/05/04 03:17:15;;;;;;;8.30;3.83;;;8.50;99.90;;;;;;5089042;28;20028;-72
2021/05/04 03:19:40;;;;;;;5.72;2.85;;;8.60;99.90;;;;;;5085370;28;20028;-73
2021/05/04 03:22:06;;;;;;;5.93;3.05;;;8.70;99.90;;;;;;5084993;28;20072;-72
2021/05/04 03:24:32;;;;;;;4.35;2.38;;;8.70;99.90;;;;;;5084752;28;20028;-73
2021/05/04 03:26:57;;;;;;;8.48;3.65;;;8.70;99.90;;;;;;5084694;28;20032;-74
2021/05/04 03:29:23;;;;;;;9.60;3.65;;;8.80;99.90;;;;;;5085582;28;20029;-76
2021/05/04 03:31:49;;;;;;;4.28;2.88;;;8.80;99.90;;;;;;5084523;28;20024;-71
2021/05/04 03:34:14;;;;;;;8.07;2.97;;;8.70;99.90;;;;;;5085504;28;20082;-73
2021/05/04 03:36:40;;;;;;;9.50;3.92;;;8.70;99.90;;;;;;5083949;28;20075;-72
2021/05/04 03:39:05;;;;;;;6.50;3.03;;;8.60;99.90;;;;;;5084281;28;20025;-75
2021/05/04 03:41:31;;;;;;;4.78;3.30;;;8.50;99.90;;;;;;5085160;28;20076;-73
2021/05/04 03:43:57;;;;;;;4.53;2.78;;;8.40;99.90;;;;;;5084416;28;20021;-73
2021/05/04 03:46:22;;;;;;;5.07;2.88;;;8.40;99.90;;;;;;5085861;28;20063;-68
2021/05/04 03:48:48;;;;;;;4.88;2.60;;;8.30;99.90;;;;;;5085008;28;20052;-73
2021/05/04 03:51:14;;;;;;;5.63;2.90;;;8.20;99.90;;;;;;5085245;28;20042;-71
2021/05/04 03:53:40;;;;;;;5.93;3.28;;;8.10;99.90;;;;;;5083218;28;20028;-69
2021/05/04 03:56:06;;;;;;;5.85;3.05;;;8.10;99.90;;;;;;5084837;28;20055;-71
2021/05/04 03:58:33;;;;;;;6.18;3.65;;;8.00;99.90;;;;;;5085574;28;20461;-70
2021/05/04 04:00:59;;;;;;;8.82;4.00;;;8.00;99.90;;;;;;5085243;28;20029;-72
2021/05/04 04:03:24;;;;;;;7.00;4.00;;;7.90;99.90;;;;;;5084974;28;20039;-75
2021/05/04 04:05:51;;;;;;;16.95;4.80;;;7.90;99.90;;;;;;5083865;28;20473;-75
2021/05/04 04:08:16;;;;;;;8.43;4.32;;;7.80;99.90;;;;;;5085188;28;20028;-72
2021/05/04 04:10:42;;;;;;;8.57;3.38;;;7.80;99.90;;;;;;5084828;28;20377;-73
2021/05/04 04:13:08;;;;;;;6.50;2.97;;;7.80;99.90;;;;;;5084709;28;20028;-76
2021/05/04 04:15:34;;;;;;;8.65;3.72;;;7.70;99.90;;;;;;5085090;28;20033;-76
2021/05/04 04:17:59;;;;;;;4.53;2.97;;;7.70;99.90;;;;;;5084674;28;20103;-72
2021/05/04 04:20:25;;;;;;;6.00;3.50;;;7.70;99.90;;;;;;5085095;28;20035;-72
2021/05/04 04:22:51;;;;;;;10.75;3.17;;;7.60;99.90;;;;;;5084542;28;20043;-70
2021/05/04 04:25:16;;;;;;;9.18;4.32;;;7.60;99.90;;;;;;5083241;28;20030;-71
2021/05/04 04:27:42;;;;;;;6.50;4.20;;;7.60;99.90;;;;;;5084564;28;20033;-72
2021/05/04 04:30:08;;;;;;;4.75;3.22;;;7.60;99.90;;;;;;5083378;28;20036;-72
2021/05/04 04:32:34;;;;;;;6.20;3.63;;;7.60;99.90;;;;;;5084932;28;20021;-72
2021/05/04 04:34:59;;;;;;;8.45;3.35;;;7.60;99.90;;;;;;5083422;28;20432;-68
2021/05/04 04:37:25;;;;;;;7.45;3.75;;;7.60;99.90;;;;;;5078059;28;20055;-69
2021/05/04 04:39:51;;;;;;;7.53;3.88;;;7.60;99.90;;;;;;5074256;28;20051;-71
2021/05/04 04:42:17;;;;;;;15.82;4.10;;;7.60;99.90;;;;;;5082374;28;20029;-72
2021/05/04 04:44:42;;;;;;;7.72;4.07;;;7.50;99.90;;;;;;5082732;28;20024;-69
2021/05/04 04:47:11;;;;;;;7.88;4.68;;;7.50;99.90;;;;;;5083964;28;20028;-70
2021/05/04 04:49:36;;;;;;;8.00;4.15;;;7.50;99.90;;;;;;5084566;28;20020;-70
2021/05/04 04:52:02;;;;;;;11.10;4.60;;;7.40;99.90;;;;;;5083005;28;20024;-72
2021/05/04 04:54:28;;;;;;;8.48;4.68;;;7.50;99.90;;;;;;5084811;28;20056;-72
2021/05/04 04:56:53;;;;;;;6.80;3.50;;;7.60;99.90;;;;;;5083569;28;20269;-68
2021/05/04 04:59:19;;;;;;;7.45;3.88;;;7.60;99.90;;;;;;5084049;28;20081;-72
2021/05/04 05:01:45;;;;;;;8.98;3.88;;;7.60;99.90;;;;;;5083269;28;20029;-75
2021/05/04 05:04:10;;;;;;;8.05;3.97;;;7.60;99.90;;;;;;5084689;28;20111;-73
2021/05/04 05:06:36;;;;;;;7.57;3.80;;;7.60;99.90;;;;;;5088468;28;20025;-76
2021/05/04 05:09:06;;;;;;;3.95;2.75;;;7.60;99.90;;;;;;5088677;28;20032;-75
2021/05/04 05:11:32;;;;;;;10.15;4.72;;;7.70;99.90;;;;;;5087124;28;20025;-74
2021/05/04 05:13:58;;;;;;;15.32;4.53;;;7.70;99.90;;;;;;5088355;28;20086;-75
2021/05/04 05:16:23;;;;;;;6.15;4.07;;;7.70;99.90;;;;;;5088565;28;20139;-75
2021/05/04 05:18:51;;;;;;;7.53;4.30;;;7.70;99.90;;;;;;5088108;28;20059;-78
2021/05/04 05:21:17;;;;;;;5.05;3.03;;;7.70;99.90;;;;;;5086237;28;20460;-73
2021/05/04 05:23:44;;;;;;;14.25;5.07;;;7.70;99.90;;;;;;5076020;28;20029;-73
2021/05/04 05:26:09;;;;;;;8.40;4.30;;;7.70;99.90;;;;;;5068102;28;20029;-74
2021/05/04 05:28:39;;;;;;;7.22;3.38;;;7.70;99.90;;;;;;5072854;28;20033;-72
2021/05/04 05:31:05;;;;;;;8.73;4.53;;;7.70;99.90;;;;;;5072227;28;20021;-74
2021/05/04 05:33:31;;;;;;;6.45;3.90;;;7.70;99.90;;;;;;5082980;28;20044;-72
2021/05/04 05:35:56;;;;;;;10.00;3.20;;;7.60;99.90;;;;;;5067976;28;20040;-72
2021/05/04 05:38:22;;;;;;;3.88;2.22;;;7.70;99.90;;;;;;5067804;28;20021;-73
2021/05/04 05:40:48;;;;;;;8.13;3.60;;;7.70;99.90;;;;;;5067038;28;20043;-71
2021/05/04 05:43:13;;;;;;;5.10;2.67;;;7.70;99.90;;;;;;5065719;28;20060;-71
2021/05/04 05:45:39;;;;;;;3.47;2.13;;;7.70;99.90;;;;;;5067689;28;20025;-73
2021/05/04 05:48:05;;;;;;;4.53;2.78;;;7.80;99.90;;;;;;5066731;28;20031;-75
2021/05/04 05:50:31;;;;;;;4.53;2.13;;;7.70;99.90;;;;;;5067807;28;20032;-75
2021/05/04 05:52:56;;;;;;;9.15;3.22;;;7.80;99.90;;;;;;5068025;28;20029;-73
2021/05/04 05:55:22;;;;;;;3.85;2.47;;;7.90;99.90;;;;;;5067114;28;20043;-74
2021/05/04 05:57:48;;;;;;;5.60;2.60;;;7.90;99.90;;;;;;5066737;28;20044;-73
2021/05/04 06:00:16;;;;;;;3.75;1.90;;;8.00;99.90;;;;;;5066605;28;20633;-72
2021/05/04 06:02:42;;;;;;;3.50;2.45;;;8.10;99.90;;;;;;5067686;28;20017;-73
2021/05/04 06:05:08;;;;;;;4.25;2.30;;;8.20;99.90;;;;;;5067210;28;20109;-74
2021/05/04 06:07:34;;;;;;;3.05;1.65;;;8.20;99.90;;;;;;5067547;28;20036;-73
2021/05/04 06:09:59;;;;;;;5.22;2.53;;;8.20;99.90;;;;;;5065619;28;20017;-76
2021/05/04 06:12:25;;;;;;;15.38;2.13;;;8.30;99.90;;;;;;5065601;28;20032;-73
2021/05/04 06:14:50;;;;;;;4.15;1.75;;;8.50;99.90;;;;;;5065758;28;20033;-79
2021/05/04 06:17:16;;;;;;;3.67;2.63;;;8.50;99.90;;;;;;5066956;28;20044;-75
2021/05/04 06:19:41;;;;;;;8.40;2.92;;;8.50;99.90;;;;;;5065631;28;20027;-73
2021/05/04 06:22:07;;;;;;;12.30;2.42;;;8.50;99.90;;;;;;5067155;28;20021;-72
2021/05/04 06:24:33;;;;;;;2.72;1.27;;;8.40;99.90;;;;;;5067073;28;20025;-72
2021/05/04 06:26:58;;;;;;;3.50;1.80;;;8.40;99.90;;;;;;5065448;28;20039;-74
2021/05/04 06:29:24;;;;;;;4.45;2.35;;;8.40;99.90;;;;;;5066087;28;20025;-74
2021/05/04 06:31:57;;;;;;;3.47;2.67;;;8.40;99.90;;;;;;5068773;28;20032;-75
2021/05/04 06:34:22;;;;;;;5.85;2.08;;;8.40;99.90;;;;;;5071576;28;20091;-75
2021/05/04 06:36:48;;;;;;;11.88;2.17;;;8.40;99.90;;;;;;5078743;28;20040;-73
2021/05/04 06:39:13;;;;;;;5.72;2.17;;;8.50;99.90;;;;;;5070863;28;20035;-74
2021/05/04 06:41:39;;;;;;;3.13;1.70;;;8.50;99.90;;;;;;5064583;28;20044;-73
2021/05/04 06:44:06;;;;;;;6.57;2.25;;;8.50;99.90;;;;;;5066411;28;20025;-76
2021/05/04 06:46:32;;;;;;;4.13;2.53;;;8.50;99.90;;;;;;5067508;28;20921;-74
2021/05/04 06:49:00;;;;;;;3.70;1.75;;;8.60;99.90;;;;;;5069165;28;20055;-76
2021/05/04 06:51:26;;;;;;;2.40;1.60;;;8.60;99.90;;;;;;5087155;28;20055;-76
2021/05/04 06:53:51;;;;;;;3.78;2.10;;;8.50;99.90;;;;;;5086668;28;20029;-77
2021/05/04 06:56:17;;;;;;;8.25;3.17;;;8.60;99.90;;;;;;5086469;28;20059;-74
2021/05/04 06:58:42;;;;;;;2.15;1.52;;;8.60;99.90;;;;;;5085191;28;20024;-75
2021/05/04 07:01:08;;;;;;;3.63;2.55;;;8.60;99.90;;;;;;5086485;28;20025;-74
2021/05/04 07:03:34;;;;;;;5.88;2.40;;;8.60;99.90;;;;;;5086340;28;20068;-75
2021/05/04 07:06:00;;;;;;;3.03;2.45;;;8.70;99.90;;;;;;5080699;28;20033;-76
2021/05/04 07:08:26;;;;;;;4.28;2.75;;;8.70;99.90;;;;;;5085150;28;20062;-76
2021/05/04 07:10:51;;;;;;;5.03;3.03;;;8.60;99.90;;;;;;5085020;28;20139;-73
2021/05/04 07:13:18;;;;;;;6.28;2.03;;;8.60;99.90;;;;;;5084978;28;20024;-74
2021/05/04 07:15:45;;;;;;;3.80;2.63;;;8.60;99.90;;;;;;5083925;28;20036;-75
2021/05/04 07:18:11;;;;;;;3.38;1.50;;;8.60;99.90;;;;;;5084689;28;20516;-76
2021/05/04 07:20:38;;;;;;;14.43;1.90;;;8.50;99.90;;;;;;5084022;28;20025;-74
2021/05/04 07:23:10;;;;;;;3.63;2.55;;;8.50;99.90;;;;;;5083465;28;20029;-77
2021/05/04 07:25:37;;;;;;;4.35;2.45;;;8.50;99.90;;;;;;5085969;28;20020;-75
2021/05/04 07:28:04;;;;;;;2.30;1.73;;;8.40;99.90;;;;;;5082888;28;20439;-74
2021/05/04 07:30:38;;;;;;;3.25;2.15;;;8.40;99.90;;;;;;5082589;28;20025;-73
2021/05/04 07:33:04;;;;;;;2.90;1.58;;;8.40;99.90;;;;;;5084372;28;20024;-72
2021/05/04 07:35:30;;;;;;;4.28;2.50;;;8.30;99.90;;;;;;5083664;28;20059;-75
2021/05/04 07:37:56;;;;;;;8.10;2.45;;;8.30;99.90;;;;;;5084350;28;20060;-73
2021/05/04 07:40:22;;;;;;;6.00;2.90;;;8.30;99.90;;;;;;5083408;28;20036;-74
2021/05/04 07:42:48;;;;;;;3.85;2.53;;;8.40;99.90;;;;;;5082718;28;20040;-74
2021/05/04 07:45:14;;;;;;;4.38;2.05;;;8.40;99.90;;;;;;5084445;28;20024;-73
2021/05/04 07:47:40;;;;;;;3.30;1.95;;;8.40;99.90;;;;;;5085424;28;20029;-75
2021/05/04 07:50:09;;;;;;;3.60;2.40;;;8.40;99.90;;;;;;5084878;28;20025;-77
2021/05/04 07:52:34;;;;;;;3.90;2.42;;;8.50;99.90;;;;;;5085310;28;20021;-76
2021/05/04 07:55:02;;;;;;;5.03;2.80;;;8.40;99.90;;;;;;5084355;28;20036;-75
2021/05/04 07:57:29;;;;;;;5.07;2.75;;;8.40;99.90;;;;;;5082441;28;20092;-76
2021/05/04 07:59:55;;;;;;;7.30;2.97;;;8.40;99.90;;;;;;5063655;28;20037;-73
2021/05/04 08:02:21;;;;;;;3.92;2.08;;;8.40;99.90;;;;;;5063767;28;20232;-73
2021/05/04 08:04:47;;;;;;;4.85;2.30;;;8.40;99.90;;;;;;5074358;28;20028;-74
2021/05/04 08:07:12;;;;;;;5.13;3.38;;;8.40;99.90;;;;;;5084646;28;20048;-72
2021/05/04 08:09:39;;;;;;;5.78;3.20;;;8.40;99.90;;;;;;5082704;28;20044;-75
2021/05/04 08:12:06;;;;;;;7.47;2.75;;;8.40;99.90;;;;;;5082419;28;20051;-75
2021/05/04 08:14:36;;;;;;;6.25;3.42;;;8.50;99.90;;;;;;5084595;28;20036;-76
2021/05/04 08:17:02;;;;;;;4.88;2.72;;;8.60;99.90;;;;;;5083907;28;20033;-75
2021/05/04 08:19:29;;;;;;;4.28;2.72;;;8.70;99.90;;;;;;5085229;28;20029;-71
2021/05/04 08:21:55;;;;;;;5.45;3.45;;;8.80;99.90;;;;;;5084752;28;20039;-75
2021/05/04 08:24:21;;;;;;;6.63;3.30;;;8.80;99.90;;;;;;5084296;28;20088;-73
2021/05/04 08:26:47;;;;;;;6.07;3.47;;;8.80;99.90;;;;;;5081646;28;20048;-71
2021/05/04 08:29:13;;;;;;;14.10;5.18;;;8.80;99.90;;;;;;5079087;28;20066;-76
2021/05/04 08:31:42;;;;;;;7.25;3.92;;;8.70;99.90;;;;;;5066113;28;20025;-75
2021/05/04 08:34:08;;;;;;;9.70;4.47;;;8.70;99.90;;;;;;5071934;28;20063;-78
2021/05/04 08:36:34;;;;;;;7.40;4.38;;;8.60;99.90;;;;;;5080882;28;20066;-75
2021/05/04 08:39:01;;;;;;;5.63;4.10;;;8.50;99.90;;;;;;5073177;28;20060;-80
2021/05/04 08:41:27;;;;;;;8.20;4.82;;;8.50;99.90;;;;;;5078860;28;20039;-72
2021/05/04 08:43:54;;;;;;;9.65;4.78;;;8.50;99.90;;;;;;5064717;28;20025;-75
2021/05/04 08:46:22;;;;;;;6.05;4.05;;;8.50;99.90;;;;;;5066959;28;20039;-75
2021/05/04 08:48:49;;;;;;;9.48;4.95;;;8.40;99.90;;;;;;5075977;28;20415;-74
2021/05/04 08:51:17;;;;;;;10.43;4.97;;;8.40;99.90;;;;;;5077971;28;20083;-75
2021/05/04 08:53:43;;;;;;;8.02;5.32;;;8.40;99.90;;;;;;5063269;28;20025;-74
2021/05/04 08:56:14;;;;;;;6.43;4.28;;;8.50;99.90;;;;;;5063154;28;20044;-76
2021/05/04 08:58:41;;;;;;;12.75;4.90;;;8.40;99.90;;;;;;5064397;28;20032;-75
2021/05/04 09:01:07;;;;;;;11.05;5.28;;;8.40;99.90;;;;;;5064451;28;20024;-76
2021/05/04 09:03:42;;;;;;;7.70;4.40;;;8.40;99.90;;;;;;5063194;28;20068;-77
2021/05/04 09:06:28;;;;;;;11.18;5.57;;;8.40;99.90;;;;;;5064126;28;20039;-74
2021/05/04 09:08:58;;;;;;;10.23;4.80;;;8.40;99.90;;;;;;5073864;28;20032;-74
2021/05/04 09:19:22;;;;;;;7.47;4.22;;;8.50;99.90;;;;;;5075967;28;20021;-75
2021/05/04 09:21:47;;;;;;;5.15;3.28;;;8.70;99.90;;;;;;5063889;28;20393;-71
2021/05/04 09:24:33;;;;;;;2.90;1.77;;;8.90;99.90;;;;;;5064227;28;20021;-75
2021/05/04 09:27:16;;;;;;;6.65;3.40;;;8.90;99.90;;;;;;5064730;28;20029;-75
2021/05/04 09:29:52;;;;;;;5.18;2.85;;;9.00;99.90;;;;;;5063847;28;20029;-73
2021/05/04 09:32:20;;;;;;;4.05;2.72;;;8.90;99.90;;;;;;5063292;28;20025;-74
2021/05/04 09:34:54;;;;;;;7.07;2.78;;;8.90;99.90;;;;;;5062323;28;20044;-74
2021/05/04 09:37:29;;;;;;;2.40;1.70;;;8.80;99.90;;;;;;5062814;28;20044;-78
2021/05/04 09:39:56;;;;;;;2.80;1.45;;;8.90;99.90;;;;;;5077907;28;20025;-74
2021/05/04 09:42:30;;;;;;;6.07;2.08;;;8.90;99.90;;;;;;5082491;28;20088;-73
2021/05/04 09:44:55;;;;;;;5.43;1.70;;;8.90;99.90;;;;;;5080477;28;20036;-76
2021/05/04 09:47:23;;;;;;;4.30;1.77;;;9.00;99.90;;;;;;5063909;28;20267;-73
2021/05/04 09:49:50;;;;;;;3.00;1.63;;;9.00;99.90;;;;;;5063727;28;20139;-76
2021/05/04 09:52:42;;;;;;;3.53;1.90;;;9.10;99.90;;;;;;5066867;28;20119;-72
2021/05/04 09:55:16;;;;;;;2.67;1.25;;;9.10;99.90;;;;;;5067592;28;20104;-74
2021/05/04 09:57:43;;;;;;;3.20;1.73;;;9.20;99.90;;;;;;5066540;28;20032;-75
2021/05/04 10:00:14;;;;;;;8.80;2.17;;;9.20;99.90;;;;;;5066777;28;20025;-73
2021/05/04 10:02:41;;;;;;;4.85;2.65;;;9.40;99.90;;;;;;5066267;28;20052;-74
2021/05/04 10:05:10;;;;;;;6.60;3.00;;;9.60;99.90;;;;;;5066572;28;20024;-77
2021/05/04 10:07:37;;;;;;;1.88;1.67;;;9.80;99.90;;;;;;5067007;28;20029;-78
2021/05/04 10:10:06;;;;;;;3.85;2.58;;;10.10;99.90;;;;;;5066866;28;20020;-77
2021/05/04 10:12:34;;;;;;;3.63;2.22;;;10.50;99.90;;;;;;5067328;28;20026;-78
2021/05/04 10:15:06;;;;;;;3.58;2.35;;;10.80;99.90;;;;;;5067547;28;20193;-75
2021/05/04 10:17:37;;;;;;;11.52;2.47;;;11.10;99.90;;;;;;5066264;28;20041;-74
2021/05/04 10:20:06;;;;;;;3.72;2.22;;;11.40;99.90;;;;;;5082409;28;20024;-74
2021/05/04 10:22:35;;;;;;;4.82;2.22;;;11.50;99.90;;;;;;5078255;28;20029;-73
2021/05/04 10:25:05;;;;;;;3.35;2.47;;;11.50;99.90;;;;;;5065692;28;20401;-74
2021/05/04 10:27:33;;;;;;;6.22;2.00;;;11.50;99.90;;;;;;5066167;28;20029;-75
2021/05/04 10:30:01;;;;;;;5.70;1.60;;;11.40;99.90;;;;;;5067151;28;20051;-79
2021/05/04 10:33:00;;;;;;;4.18;2.10;;;11.40;99.90;;;;;;5065623;28;20033;-74
2021/05/04 10:35:29;;;;;;;6.25;1.40;;;11.40;99.90;;;;;;5050915;28;20057;-75
2021/05/04 10:38:02;;;;;;;3.90;2.08;;;11.40;99.90;;;;;;5065950;28;20134;-76
2021/05/04 10:40:30;;;;;;;3.50;1.05;;;11.60;99.90;;;;;;5065872;28;20084;-74
2021/05/04 10:43:00;;;;;;;1.52;1.02;;;11.60;99.90;;;;;;5067052;28;20029;-73
2021/05/04 10:45:42;;;;;;;1.90;0.50;;;11.60;99.90;;;;;;5065758;28;20013;-74
2021/05/04 10:48:09;;;;;;;5.57;0.90;;;11.70;99.90;;;;;;5065916;28;20033;-74
2021/05/04 10:50:51;;;;;;;1.45;1.10;;;11.90;99.90;;;;;;5066034;28;20021;-77
2021/05/04 10:53:19;;;;;;;1.83;1.33;;;12.30;99.90;;;;;;5065061;28;20029;-76
2021/05/04 10:55:54;;;;;;;0.80;0.70;;;12.30;99.90;;;;;;5066716;28;20084;-73
2021/05/04 10:58:24;;;;;;;0.90;0.75;;;12.20;99.90;;;;;;5064853;28;20075;-73
2021/05/04 11:00:51;;;;;;;3.15;0.98;;;12.00;99.90;;;;;;5064673;28;20134;-76
2021/05/04 11:03:33;;;;;;;1.98;0.95;;;11.90;99.90;;;;;;5064984;28;20028;-73
2021/05/04 11:06:02;;;;;;;2.78;1.15;;;11.90;99.90;;;;;;5065083;28;20035;-73
2021/05/04 11:08:40;;;;;;;2.03;1.20;;;11.90;99.90;;;;;;5065395;28;20044;-77
2021/05/04 11:11:27;;;;;;;6.00;1.23;;;11.80;99.90;;;;;;5064895;28;20378;-74
2021/05/04 11:14:27;;;;;;;1.85;1.05;;;11.80;99.90;;;;;;5064705;28;20036;-75
2021/05/04 11:16:52;;;;;;;5.25;1.20;;;11.70;99.90;;;;;;5066253;28;20060;-77
2021/05/04 11:19:31;;;;;;;2.10;1.00;;;11.50;99.90;;;;;;5064505;28;20397;-71
2021/05/04 11:22:00;;;;;;;2.60;1.35;;;11.30;99.90;;;;;;5081599;28;20029;-74
2021/05/04 11:24:28;;;;;;;3.28;1.30;;;11.10;99.90;;;;;;5064428;28;20483;-75
2021/05/04 11:26:56;;;;;;;3.58;1.60;;;11.00;99.90;;;;;;5064957;28;20070;-77
2021/05/04 11:29:45;;;;;;;3.38;1.30;;;10.90;99.90;;;;;;5065829;28;20025;-75
2021/05/04 11:32:36;;;;;;;2.67;1.27;;;10.90;99.90;;;;;;5064639;28;20068;-76
2021/05/04 11:35:08;;;;;;;2.33;1.30;;;10.80;99.90;;;;;;5063521;28;20080;-76
2021/05/04 11:37:45;;;;;;;11.77;1.30;;;10.70;99.90;;;;;;5065999;28;20063;-77
2021/05/04 11:40:17;;;;;;;1.77;1.08;;;10.50;99.90;;;;;;5064267;28;20032;-75
2021/05/04 11:42:54;;;;;;;3.13;1.17;;;10.40;99.90;;;;;;5063774;28;20029;-74
2021/05/04 11:45:34;;;;;;;5.30;1.05;;;10.30;99.90;;;;;;5064531;28;20284;-75
2021/05/04 11:48:07;;;;;;;9.55;1.85;;;10.10;99.90;;;;;;5063885;28;20045;-75
2021/05/04 11:50:35;;;;;;;2.40;1.07;;;10.00;99.90;;;;;;5064213;28;20036;-75
2021/05/04 11:53:04;;;;;;;2.40;1.23;;;9.90;99.90;;;;;;5064890;28;20037;-75
2021/05/04 11:55:33;;;;;;;5.15;2.40;;;10.00;99.90;;;;;;5064617;28;20058;-75
2021/05/04 11:58:02;;;;;;;14.20;3.65;;;10.00;99.90;;;;;;5064465;28;20476;-74
2021/05/04 12:00:30;;;;;;;5.80;2.35;;;10.00;99.90;;;;;;5066116;28;20064;-75
2021/05/04 12:02:56;;;;;;;4.15;2.05;;;10.00;99.90;;;;;;5064490;28;20032;-78
2021/05/04 12:05:26;;;;;;;3.83;1.73;;;10.00;99.90;;;;;;5064294;28;20021;-76
2021/05/04 12:07:52;;;;;;;5.07;2.10;;;9.90;99.90;;;;;;5068134;28;20025;-76
2021/05/04 12:10:17;;;;;;;6.35;2.13;;;9.90;99.90;;;;;;5084407;28;20024;-79
2021/05/04 12:12:46;;;;;;;4.15;2.10;;;9.90;99.90;;;;;;5086288;28;20028;-76
2021/05/04 12:15:13;;;;;;;8.52;2.88;;;9.90;99.90;;;;;;5085946;28;20476;-78
2021/05/04 12:17:40;;;;;;;3.78;1.67;;;9.90;99.90;;;;;;5084126;28;20099;-75
2021/05/04 12:20:13;;;;;;;5.28;1.67;;;9.90;99.90;;;;;;5083901;28;20120;-75
2021/05/04 12:23:00;;;;;;;4.65;1.90;;;9.90;99.90;;;;;;5084070;28;20097;-76
2021/05/04 12:25:52;;;;;;;4.50;1.92;;;9.80;99.90;;;;;;5083486;28;20131;-74
2021/05/04 12:28:20;;;;;;;4.35;2.00;;;9.70;99.90;;;;;;5083868;28;20451;-73
2021/05/04 12:30:47;;;;;;;2.13;1.15;;;9.60;99.90;;;;;;5084123;28;20043;-73
2021/05/04 12:33:13;;;;;;;2.33;1.27;;;9.50;99.90;;;;;;5085265;28;20031;-75
2021/05/04 12:36:08;;;;;;;5.05;1.38;;;9.40;99.90;;;;;;5065061;28;20053;-74
2021/05/04 12:38:44;;;;;;;2.92;1.00;;;9.30;99.90;;;;;;5063702;28;20036;-77
2021/05/04 12:41:19;;;;;;;3.08;1.30;;;9.10;99.90;;;;;;5082452;28;20028;-75
2021/05/04 12:44:24;;;;;;;1.65;0.98;;;9.20;99.90;;;;;;5084745;28;20029;-75
2021/05/04 12:47:00;;;;;;;2.78;1.67;;;9.70;99.90;;;;;;5083298;28;20051;-76
2021/05/04 12:49:33;;;;;;;4.95;1.75;;;9.80;99.90;;;;;;5083922;28;20070;-73
2021/05/04 12:52:06;;;;;;;1.90;1.23;;;9.80;99.90;;;;;;5083521;28;20032;-73
2021/05/04 12:54:35;;;;;;;1.33;0.90;;;9.90;99.90;;;;;;5083955;28;20033;-75
2021/05/04 12:57:23;;;;;;;3.85;1.10;;;10.10;99.90;;;;;;5085181;28;20047;-76
2021/05/04 12:59:49;;;;;;;3.28;1.70;;;10.40;99.90;;;;;;5084842;28;20174;-75
2021/05/04 13:02:22;;;;;;;2.60;1.42;;;10.70;99.90;;;;;;5083701;28;20024;-76
2021/05/04 13:04:50;;;;;;;2.58;1.45;;;10.80;99.90;;;;;;5083079;28;20039;-75
2021/05/04 13:08:04;;;;;;;1.65;1.02;;;10.60;99.90;;;;;;5082930;28;20028;-75